Excelsior, Minnesota
Current Conditions -  °F | °C
As of 7:48 AM on Friday 19 Dec 2014 (Local Time) from KFCM Reporting Station
Overcast Overcast  
Wind Chill: 16°   Ceiling: 1400
Heat Index: 23°   Visibility: 7mi
Dew Point: 19°   Wind: 6mph
Humidity: 86%   Direction: 120°ESE
Pressure: 30.23"   Gusts: NA
Location:  44.9°N, 93.57°W
Report Text: KFCM 191348Z 12005KT 7SM OVC014 M05/M07 A3023 RMK AO2
Loading
Personal Weather Stations






























Interactive Weather Map New forecast layout! Learn more

10-Day Weather Forecast

Advertisements
Track Severe Weather on mobile